Time;durP1;ratioP1;P1;durP2;ratioP2;P2;SDS_P1;SDS_P2;PMS_P1;PMS_P2;Temp;Humidity;BMP_temperature;BMP_pressure;BME280_temperature;BME280_humidity;BME280_pressure;Samples;Min_cycle;Max_cycle;Signal;HPM_P1;HPM_P2
2021/05/23 00:00:32;;;;;;;18.07;7.67;;;;;;;7.48;91.06;100142.31;4955761;28;19969;-74
2021/05/23 00:03:00;;;;;;;16.48;7.88;;;;;;;7.49;91.14;100137.81;4955551;28;20079;-74
2021/05/23 00:05:28;;;;;;;20.40;7.38;;;;;;;7.51;91.54;100144.63;4955349;28;20492;-74
2021/05/23 00:08:03;;;;;;;12.60;7.15;;;;;;;7.52;91.58;100140.19;4972205;28;20105;-74
2021/05/23 00:10:30;;;;;;;12.52;5.43;;;;;;;7.53;90.88;100136.53;4972593;28;20034;-74
2021/05/23 00:12:58;;;;;;;15.90;6.43;;;;;;;7.51;91.02;100139.31;4972577;28;20043;-74
2021/05/23 00:15:40;;;;;;;16.40;6.13;;;;;;;7.50;90.72;100142.97;4972473;28;20041;-75
2021/05/23 00:18:07;;;;;;;12.43;5.13;;;;;;;7.49;91.01;100138.69;4955331;28;20058;-75
2021/05/23 00:20:32;;;;;;;16.85;4.93;;;;;;;7.52;91.12;100146.31;4972560;28;20097;-76
2021/05/23 00:22:58;;;;;;;16.87;5.67;;;;;;;7.53;90.47;100152.47;4972550;28;20376;-76
2021/05/23 00:25:24;;;;;;;14.33;4.90;;;;;;;7.53;90.40;100157.78;4972345;28;20077;-77
2021/05/23 00:27:50;;;;;;;16.08;5.18;;;;;;;7.55;90.59;100156.63;4939291;28;20038;-77
2021/05/23 00:30:17;;;;;;;11.48;4.72;;;;;;;7.54;90.56;100165.59;4972409;28;20453;-77
2021/05/23 00:32:43;;;;;;;10.52;4.40;;;;;;;7.55;90.16;100156.63;4955396;28;20137;-77
2021/05/23 00:35:09;;;;;;;13.00;4.45;;;;;;;7.57;90.32;100167.09;4955301;28;20038;-77
2021/05/23 00:37:35;;;;;;;9.52;3.78;;;;;;;7.58;89.10;100161.59;4972116;28;20030;-77
2021/05/23 00:40:00;;;;;;;13.03;4.23;;;;;;;7.63;89.06;100170.94;4955248;28;20113;-76
2021/05/23 00:42:26;;;;;;;15.47;4.83;;;;;;;7.58;89.62;100171.41;4973533;28;20122;-76
2021/05/23 00:44:52;;;;;;;9.25;4.20;;;;;;;7.57;88.96;100175.06;4975983;28;20054;-77
2021/05/23 00:47:17;;;;;;;16.08;4.07;;;;;;;7.60;89.15;100172.09;4975763;28;20578;-77
2021/05/23 00:49:42;;;;;;;14.73;3.87;;;;;;;7.60;88.96;100174.75;4958929;28;20043;-77
2021/05/23 00:52:08;;;;;;;4.17;2.63;;;;;;;7.64;88.53;100177.94;4976134;28;20363;-77
2021/05/23 00:54:34;;;;;;;11.47;4.03;;;;;;;7.66;88.99;100183.94;4975956;28;20042;-77
2021/05/23 00:57:01;;;;;;;13.02;4.45;;;;;;;7.59;88.61;100178.41;4975780;28;20034;-77
2021/05/23 00:59:26;;;;;;;11.57;4.78;;;;;;;7.56;88.45;100176.91;4958899;28;20443;-77
2021/05/23 01:01:54;;;;;;;13.52;3.85;;;;;;;7.57;88.79;100186.53;4975920;28;20118;-77
2021/05/23 01:04:20;;;;;;;18.02;4.68;;;;;;;7.57;88.21;100175.91;4958800;28;20049;-77
2021/05/23 01:06:45;;;;;;;11.73;4.47;;;;;;;7.59;88.05;100189.84;4958310;28;20034;-78
2021/05/23 01:09:11;;;;;;;16.97;4.73;;;;;;;7.57;88.71;100191.00;4958645;28;20044;-77
2021/05/23 01:11:39;;;;;;;11.03;3.63;;;;;;;7.59;88.79;100197.84;4942679;28;20042;-77
2021/05/23 01:14:20;;;;;;;12.75;3.42;;;;;;;7.56;88.49;100189.31;4958397;28;20767;-78
2021/05/23 01:16:50;;;;;;;14.75;3.80;;;;;;;7.57;88.37;100196.31;4942154;28;20387;-78
2021/05/23 01:19:27;;;;;;;13.27;4.07;;;;;;;7.58;87.69;100193.50;4958580;28;20464;-77
2021/05/23 01:21:59;;;;;;;11.15;3.25;;;;;;;7.58;88.11;100188.19;4958510;28;20053;-78
2021/05/23 01:24:30;;;;;;;20.77;5.65;;;;;;;7.54;88.68;100191.34;4975335;28;20045;-79
2021/05/23 01:26:57;;;;;;;12.77;4.65;;;;;;;7.56;88.68;100194.63;4975296;28;20070;-78
2021/05/23 01:29:22;;;;;;;10.23;4.32;;;;;;;7.58;88.05;100204.13;4942462;28;20349;-79
2021/05/23 01:31:48;;;;;;;13.63;4.13;;;;;;;7.58;88.00;100197.97;4958508;28;20062;-78
2021/05/23 01:34:20;;;;;;;17.25;4.65;;;;;;;7.56;87.77;100203.47;4958264;28;20035;-78
2021/05/23 01:36:47;;;;;;;11.77;3.55;;;;;;;7.56;87.33;100205.25;4958267;28;20046;-78
2021/05/23 01:39:13;;;;;;;;;;;;;;;7.60;87.51;100201.31;4958567;28;20061;-79
2021/05/23 01:41:38;;;;;;;;;;;;;;;7.60;87.01;100206.63;4975771;28;19968;-79
2021/05/23 01:44:05;;;;;;;7.55;2.88;;;;;;;7.58;87.37;100208.59;4942203;28;19914;-79
2021/05/23 01:46:31;;;;;;;9.80;3.60;;;;;;;7.59;87.32;100211.13;4941948;28;20074;-79
2021/05/23 01:48:57;;;;;;;14.02;4.22;;;;;;;7.60;86.82;100214.59;4958115;28;20121;-79
2021/05/23 01:51:22;;;;;;;14.63;3.70;;;;;;;7.56;86.69;100216.75;4975104;28;20041;-78
2021/05/23 01:53:48;;;;;;;11.70;3.63;;;;;;;7.60;86.39;100214.59;4957864;28;20057;-78
2021/05/23 01:56:13;;;;;;;6.03;3.03;;;;;;;7.64;86.01;100208.00;4957753;28;20038;-79
2021/05/23 01:58:39;;;;;;;9.23;3.67;;;;;;;7.67;86.04;100223.59;4958793;28;20037;-79
2021/05/23 02:01:04;;;;;;;11.70;3.00;;;;;;;7.61;85.39;100214.44;4976086;28;20712;-78
2021/05/23 02:03:31;;;;;;;7.57;2.85;;;;;;;7.62;85.37;100220.59;4946917;28;20077;-78
2021/05/23 02:05:59;;;;;;;10.43;2.83;;;;;;;7.65;85.17;100216.78;4995452;28;20435;-78
2021/05/23 02:08:28;;;;;;;22.38;4.32;;;;;;;7.65;84.55;100222.09;4978404;28;20038;-79
2021/05/23 02:10:59;;;;;;;12.95;3.05;;;;;;;7.67;85.42;100223.59;4977790;28;20514;-78
2021/05/23 02:13:26;;;;;;;14.93;3.80;;;;;;;7.59;85.33;100224.41;4977647;28;20312;-79
2021/05/23 02:15:52;;;;;;;11.68;2.80;;;;;;;7.62;85.15;100220.59;4977298;28;20039;-78
2021/05/23 02:18:18;;;;;;;14.10;3.88;;;;;;;7.64;84.88;100225.75;4994317;28;20046;-79
2021/05/23 02:20:44;;;;;;;7.78;2.63;;;;;;;7.69;84.58;100226.13;4976756;28;20408;-77
2021/05/23 02:23:14;;;;;;;9.77;3.15;;;;;;;7.66;84.76;100221.13;4960870;28;20145;-79
2021/05/23 02:25:40;;;;;;;12.18;4.63;;;;;;;7.64;84.79;100228.41;4976791;28;20101;-77
2021/05/23 02:28:07;;;;;;;12.35;3.38;;;;;;;7.63;84.84;100232.03;4993518;28;20399;-77
2021/05/23 02:30:36;;;;;;;15.07;3.03;;;;;;;7.66;85.01;100235.25;4976533;28;20460;-77
2021/05/23 02:33:08;;;;;;;14.68;3.40;;;;;;;7.63;84.62;100237.34;4976363;28;20130;-76
2021/05/23 02:35:41;;;;;;;14.13;3.30;;;;;;;7.68;85.48;100240.38;4993457;28;20042;-76
2021/05/23 02:38:08;;;;;;;13.10;2.92;;;;;;;7.67;84.60;100228.09;4976092;28;20587;-76
2021/05/23 02:40:35;;;;;;;12.60;3.20;;;;;;;7.61;84.95;100240.19;4976635;28;20046;-76
2021/05/23 02:43:02;;;;;;;9.23;2.80;;;;;;;7.72;85.16;100236.44;4976334;28;20038;-76
2021/05/23 02:45:27;;;;;;;6.35;2.92;;;;;;;7.66;84.40;100237.06;4976199;28;20042;-75
2021/05/23 02:47:54;;;;;;;18.23;2.60;;;;;;;7.60;84.40;100235.84;4992741;28;20116;-75
2021/05/23 02:50:24;;;;;;;;;;;;;;;7.58;84.23;100240.47;4993690;28;20129;-74
2021/05/23 02:52:49;;;;;;;13.45;3.53;;;;;;;7.50;83.64;100246.56;4993060;28;19913;-74
2021/05/23 02:55:16;;;;;;;11.38;3.42;;;;;;;7.51;84.55;100242.91;4993076;28;20034;-74
2021/05/23 02:57:43;;;;;;;11.80;3.47;;;;;;;7.48;83.77;100251.22;4992644;28;20448;-74
2021/05/23 03:00:12;;;;;;;9.75;2.58;;;;;;;7.41;83.90;100250.16;4992956;28;20045;-74
2021/05/23 03:02:38;;;;;;;12.60;2.92;;;;;;;7.27;84.05;100238.25;4992861;28;20046;-73
2021/05/23 03:05:07;;;;;;;11.05;3.35;;;;;;;7.23;84.26;100255.47;4992377;28;20045;-73
2021/05/23 03:07:38;;;;;;;10.65;2.67;;;;;;;7.14;85.08;100265.22;4975715;28;20044;-73
2021/05/23 03:10:09;;;;;;;13.27;2.30;;;;;;;7.17;84.73;100259.59;4975775;28;20375;-73
2021/05/23 03:12:35;;;;;;;10.23;3.38;;;;;;;7.16;84.95;100265.91;4992878;28;20116;-74
2021/05/23 03:15:00;;;;;;;10.65;3.03;;;;;;;7.03;85.20;100267.25;4993042;28;20384;-74
2021/05/23 03:17:26;;;;;;;13.40;2.67;;;;;;;7.03;85.34;100278.69;4992321;28;20034;-74
2021/05/23 03:19:51;;;;;;;11.95;3.60;;;;;;;7.04;85.50;100275.06;4975462;28;20050;-74
2021/05/23 03:22:16;;;;;;;13.50;4.50;;;;;;;7.09;84.59;100294.00;4992576;28;20042;-74
2021/05/23 03:24:42;;;;;;;11.73;3.57;;;;;;;7.06;85.17;100290.84;4975441;28;20034;-75
2021/05/23 03:27:07;;;;;;;10.47;2.37;;;;;;;7.07;85.07;100298.66;4975174;28;20122;-74
2021/05/23 03:29:32;;;;;;;8.67;2.57;;;;;;;7.18;84.80;100303.72;4992270;28;20462;-74
2021/05/23 03:31:58;;;;;;;11.23;2.47;;;;;;;7.18;84.07;100303.72;4992644;28;20056;-74
2021/05/23 03:34:23;;;;;;;8.93;2.53;;;;;;;7.22;83.93;100306.09;4992361;28;20076;-75
2021/05/23 03:36:49;;;;;;;10.90;2.97;;;;;;;7.17;83.81;100312.69;4975013;28;20072;-75
2021/05/23 03:39:14;;;;;;;12.00;3.07;;;;;;;7.12;83.42;100314.97;4975233;28;20066;-75
2021/05/23 03:41:40;;;;;;;13.10;3.97;;;;;;;7.06;84.04;100318.22;4992497;28;20042;-75
2021/05/23 03:44:05;;;;;;;10.57;2.77;;;;;;;7.10;83.25;100322.25;4974937;28;20054;-74
2021/05/23 03:46:31;;;;;;;21.92;5.38;;;;;;;7.11;83.90;100321.25;4958867;28;20093;-75
2021/05/23 03:48:56;;;;;;;25.03;4.13;;;;;;;7.11;83.79;100315.09;4992227;28;20145;-75
2021/05/23 03:51:21;;;;;;;8.33;2.57;;;;;;;7.16;83.20;100328.75;4975153;28;20050;-76
2021/05/23 03:53:46;;;;;;;14.47;3.50;;;;;;;7.12;84.12;100332.72;4975067;28;20045;-76
2021/05/23 03:56:12;;;;;;;11.30;2.40;;;;;;;7.08;83.74;100329.50;4991850;28;20042;-76
2021/05/23 03:58:37;;;;;;;16.80;3.20;;;;;;;7.13;84.01;100340.50;4974900;28;20046;-76
2021/05/23 04:01:03;;;;;;;8.03;2.57;;;;;;;7.11;83.46;100334.50;4974983;28;20053;-76
2021/05/23 04:03:29;;;;;;;16.63;2.67;;;;;;;7.13;82.97;100335.19;4992011;28;20038;-76
2021/05/23 04:05:54;;;;;;;6.60;2.60;;;;;;;7.13;82.95;100343.16;4991730;28;20041;-77
2021/05/23 04:08:20;;;;;;;13.37;3.03;;;;;;;7.17;83.43;100347.19;4958845;28;20042;-77
2021/05/23 04:10:55;;;;;;;16.70;3.63;;;;;;;7.24;83.41;100344.78;4992081;28;20121;-76
2021/05/23 04:13:22;;;;;;;14.18;3.72;;;;;;;7.25;83.40;100343.78;4974813;28;20041;-76
2021/05/23 04:15:48;;;;;;;9.10;2.90;;;;;;;7.30;83.51;100349.47;4974576;28;20038;-77
2021/05/23 04:18:13;;;;;;;13.50;3.40;;;;;;;7.41;83.67;100356.41;4994573;28;20038;-77
2021/05/23 04:20:38;;;;;;;10.57;3.13;;;;;;;7.53;84.06;100352.53;4978995;28;20022;-77
2021/05/23 04:23:04;;;;;;;15.93;3.83;;;;;;;7.55;83.58;100355.84;4996006;28;20549;-78
2021/05/23 04:25:29;;;;;;;13.43;3.77;;;;;;;7.65;83.35;100353.13;4995576;28;20030;-77
2021/05/23 04:27:55;;;;;;;17.60;3.20;;;;;;;7.59;82.58;100354.56;4978254;28;20392;-77
2021/05/23 04:30:24;;;;;;;9.02;2.80;;;;;;;7.58;82.44;100354.72;4995682;28;20042;-77
2021/05/23 04:32:50;;;;;;;16.48;3.25;;;;;;;7.51;81.60;100359.81;4978695;28;20383;-77
2021/05/23 04:35:16;;;;;;;17.15;3.72;;;;;;;7.59;82.77;100373.16;4995624;28;20049;-77
2021/05/23 04:37:45;;;;;;;17.88;3.15;;;;;;;7.59;81.03;100365.19;4978039;28;20038;-78
2021/05/23 04:40:12;;;;;;;14.55;3.00;;;;;;;7.56;79.74;100372.63;4961955;28;20069;-78
2021/05/23 04:42:38;;;;;;;12.75;3.67;;;;;;;7.66;80.88;100380.53;4978128;28;20080;-76
2021/05/23 04:45:05;;;;;;;17.08;4.03;;;;;;;7.72;79.37;100374.59;4962137;28;20470;-78
2021/05/23 04:47:31;;;;;;;16.95;3.78;;;;;;;7.85;79.40;100375.06;4986298;28;20037;-78
2021/05/23 04:49:57;;;;;;;12.75;3.17;;;;;;;7.94;78.98;100382.09;4969191;28;20367;-78
2021/05/23 04:52:22;;;;;;;14.07;3.42;;;;;;;8.00;78.95;100388.63;4952515;28;20352;-78
2021/05/23 04:54:48;;;;;;;16.23;2.87;;;;;;;8.08;78.79;100385.19;4985157;28;20041;-78
2021/05/23 04:57:13;;;;;;;22.57;4.27;;;;;;;8.09;78.27;100387.69;4968334;28;20034;-78
2021/05/23 04:59:39;;;;;;;13.00;2.80;;;;;;;8.22;78.03;100392.63;4969734;28;20149;-78
2021/05/23 05:02:04;;;;;;;17.92;4.63;;;;;;;8.37;76.63;100385.72;4978166;28;20052;-78
2021/05/23 05:04:30;;;;;;;10.27;2.67;;;;;;;8.64;76.99;100390.06;4988363;28;20049;-78
2021/05/23 05:06:55;;;;;;;19.17;3.37;;;;;;;8.88;75.39;100392.00;4991524;28;20089;-78
2021/05/23 05:09:21;;;;;;;19.42;3.40;;;;;;;8.87;73.95;100390.34;4977883;28;20379;-78
2021/05/23 05:11:47;;;;;;;15.23;2.30;;;;;;;8.70;73.94;100401.91;4964768;28;20077;-78
2021/05/23 05:14:12;;;;;;;12.67;3.07;;;;;;;8.69;74.65;100404.75;4975755;28;20468;-79
2021/05/23 05:16:39;;;;;;;25.90;3.57;;;;;;;8.74;74.42;100397.09;4975047;28;20042;-80
2021/05/23 05:19:05;;;;;;;12.80;3.05;;;;;;;8.87;74.51;100405.47;4975597;28;20067;-79
2021/05/23 05:21:30;;;;;;;15.73;2.75;;;;;;;8.99;73.35;100408.66;4942341;28;20259;-80
2021/05/23 05:23:56;;;;;;;21.63;3.87;;;;;;;9.54;72.23;100405.50;4958322;28;20125;-79
2021/05/23 05:26:21;;;;;;;14.03;2.70;;;;;;;10.09;69.57;100398.69;4958259;28;20049;-78
2021/05/23 05:28:46;;;;;;;17.80;2.83;;;;;;;10.38;69.50;100410.72;4974387;28;20027;-79
2021/05/23 05:31:12;;;;;;;11.33;3.50;;;;;;;11.02;67.08;100416.88;4957132;28;20027;-79
2021/05/23 05:33:38;;;;;;;14.90;3.80;;;;;;;12.03;64.12;100410.59;4973606;28;20045;-80
2021/05/23 05:36:03;;;;;;;10.23;2.30;;;;;;;12.10;60.97;100416.03;4940857;28;20042;-80
2021/05/23 05:38:29;;;;;;;9.50;2.20;;;;;;;12.85;61.06;100420.50;4974127;28;20074;-82
2021/05/23 05:40:54;;;;;;;14.90;2.40;;;;;;;13.26;60.17;100419.16;4957225;28;20050;-82
2021/05/23 05:43:20;;;;;;;10.10;3.20;;;;;;;13.33;58.97;100422.78;4974587;28;20039;-81
2021/05/23 05:45:45;;;;;;;9.32;2.30;;;;;;;13.69;58.82;100421.91;4958431;28;20038;-81
2021/05/23 05:48:11;;;;;;;13.03;2.73;;;;;;;13.79;56.17;100422.44;4957954;28;20054;-81
2021/05/23 05:50:36;;;;;;;15.20;2.53;;;;;;;13.32;57.76;100428.31;4958253;28;20049;-80
2021/05/23 05:53:01;;;;;;;7.97;2.10;;;;;;;13.40;57.74;100412.94;4975154;28;20045;-82
2021/05/23 05:55:26;;;;;;;15.37;2.77;;;;;;;13.98;55.27;100425.47;4957899;28;20396;-81
2021/05/23 05:57:52;;;;;;;7.40;2.70;;;;;;;12.84;58.11;100424.19;4974519;28;20030;-81
2021/05/23 06:00:18;;;;;;;11.13;2.97;;;;;;;11.88;61.89;100432.97;4967345;28;20035;-82
2021/05/23 06:02:43;;;;;;;17.05;3.47;;;;;;;10.86;64.04;100435.63;4950122;28;20049;-81
2021/05/23 06:05:09;;;;;;;11.27;2.37;;;;;;;10.43;65.78;100435.88;4983565;28;20034;-82
2021/05/23 06:07:34;;;;;;;12.88;3.72;;;;;;;10.30;68.22;100420.41;4951927;28;20030;-80
2021/05/23 06:10:00;;;;;;;9.23;2.73;;;;;;;10.09;68.60;100436.03;4976952;28;20044;-81
2021/05/23 06:12:25;;;;;;;13.07;2.70;;;;;;;9.60;69.51;100444.00;4994207;28;20664;-80
2021/05/23 06:14:50;;;;;;;12.83;3.03;;;;;;;9.79;70.33;100440.22;4977279;28;20434;-80
2021/05/23 06:17:16;;;;;;;7.43;3.17;;;;;;;9.77;69.71;100432.38;4993534;28;20030;-79
2021/05/23 06:19:41;;;;;;;16.13;4.03;;;;;;;9.38;70.97;100440.13;4976904;28;20050;-82
2021/05/23 06:22:06;;;;;;;9.40;3.03;;;;;;;10.30;69.71;100451.56;4976774;28;20030;-79
2021/05/23 06:24:32;;;;;;;11.13;2.67;;;;;;;10.72;66.61;100454.03;4993873;28;20099;-79
2021/05/23 06:26:57;;;;;;;14.53;2.73;;;;;;;10.46;69.27;100454.22;4993481;28;20038;-80
2021/05/23 06:29:23;;;;;;;15.73;3.33;;;;;;;11.35;64.48;100454.94;4960767;28;20049;-78
2021/05/23 06:31:48;;;;;;;11.27;2.70;;;;;;;10.84;66.64;100451.84;4976614;28;20138;-82
2021/05/23 06:34:13;;;;;;;7.27;2.57;;;;;;;10.84;66.63;100457.19;4976623;28;20080;-81
2021/05/23 06:36:39;;;;;;;15.23;2.80;;;;;;;10.99;65.40;100466.13;4976318;28;20054;-80
2021/05/23 06:39:06;;;;;;;9.83;2.47;;;;;;;12.00;62.84;100466.31;4976152;28;20050;-79
2021/05/23 06:41:31;;;;;;;17.42;3.03;;;;;;;11.29;62.43;100477.03;4959788;28;20128;-79
2021/05/23 06:43:57;;;;;;;12.43;2.40;;;;;;;10.66;63.78;100478.75;4976420;28;20436;-78
2021/05/23 06:46:22;;;;;;;12.57;3.20;;;;;;;10.38;67.80;100486.28;4975987;28;20035;-79
2021/05/23 06:48:48;;;;;;;12.77;2.60;;;;;;;10.14;67.85;100487.91;4993506;28;20046;-80
2021/05/23 06:51:13;;;;;;;12.03;2.03;;;;;;;10.30;67.49;100487.13;4960179;28;20069;-79
2021/05/23 06:53:39;;;;;;;10.27;2.83;;;;;;;10.64;64.21;100487.91;4976045;28;20038;-79
2021/05/23 06:56:05;;;;;;;10.85;2.33;;;;;;;11.50;60.67;100491.66;4975737;28;20038;-79
2021/05/23 06:58:30;;;;;;;5.13;1.50;;;;;;;11.22;61.53;100500.13;4993091;28;20422;-79
2021/05/23 07:00:55;;;;;;;9.47;2.40;;;;;;;11.29;62.23;100498.44;4959914;28;20121;-78
2021/05/23 07:03:21;;;;;;;16.03;3.03;;;;;;;11.43;60.61;100504.88;4975740;28;20371;-78
2021/05/23 07:05:47;;;;;;;10.70;2.20;;;;;;;11.53;59.71;100504.66;4974458;28;20336;-78
2021/05/23 07:08:13;;;;;;;9.48;1.95;;;;;;;11.95;58.89;100506.13;4990723;28;20034;-77
2021/05/23 07:10:38;;;;;;;8.03;1.90;;;;;;;11.49;59.38;100511.38;4989806;28;20026;-78
2021/05/23 07:13:04;;;;;;;12.23;3.53;;;;;;;12.10;59.25;100525.75;4990171;28;20045;-78
2021/05/23 07:15:29;;;;;;;6.07;1.00;;;;;;;12.29;57.99;100524.47;4957738;28;20568;-78
2021/05/23 07:17:57;;;;;;;10.13;1.70;;;;;;;12.70;55.96;100526.78;4973477;28;20372;-78
2021/05/23 07:20:23;;;;;;;7.63;2.40;;;;;;;12.41;55.57;100520.34;4974809;28;20050;-78
2021/05/23 07:22:48;;;;;;;6.77;1.50;;;;;;;13.41;54.71;100524.53;4959381;28;20041;-78
2021/05/23 07:25:14;;;;;;;13.37;3.37;;;;;;;12.72;54.85;100531.97;4992637;28;20526;-78
2021/05/23 07:27:40;;;;;;;11.43;1.88;;;;;;;13.19;54.00;100526.28;4975240;28;20050;-78
2021/05/23 07:30:06;;;;;;;10.05;1.80;;;;;;;13.70;51.44;100545.13;4992366;28;20092;-79
2021/05/23 07:32:32;;;;;;;9.00;1.65;;;;;;;13.06;52.59;100547.53;4992352;28;20084;-79
2021/05/23 07:34:57;;;;;;;6.40;1.40;;;;;;;13.28;55.04;100545.84;4974708;28;20069;-77
2021/05/23 07:37:23;;;;;;;11.87;2.70;;;;;;;12.50;54.61;100539.00;4991292;28;20034;-77
2021/05/23 07:39:48;;;;;;;5.97;1.97;;;;;;;12.35;57.19;100555.84;4974437;28;20037;-78
2021/05/23 07:42:13;;;;;;;6.63;1.90;;;;;;;11.84;56.89;100569.69;4991401;28;20038;-78
2021/05/23 07:44:38;;;;;;;9.93;3.23;;;;;;;12.41;55.89;100573.91;4991422;28;20035;-78
2021/05/23 07:47:04;;;;;;;6.23;1.90;;;;;;;12.12;56.24;100573.75;4973946;28;20096;-78
2021/05/23 07:49:29;;;;;;;6.57;1.77;;;;;;;11.95;56.48;100575.69;4974378;28;20034;-78
2021/05/23 07:51:55;;;;;;;8.50;1.63;;;;;;;13.05;56.44;100578.03;4974702;28;20042;-78
2021/05/23 07:54:20;;;;;;;11.63;1.90;;;;;;;12.95;52.61;100575.63;4975071;28;20035;-78
2021/05/23 07:56:45;;;;;;;6.43;2.37;;;;;;;13.02;52.68;100583.78;4991826;28;20034;-71
2021/05/23 07:59:11;;;;;;;14.40;2.60;;;;;;;13.57;51.93;100584.38;4974968;28;20099;-71
2021/05/23 08:01:36;;;;;;;5.63;1.40;;;;;;;13.59;52.46;100587.72;4975077;28;20372;-71
2021/05/23 08:04:02;;;;;;;6.80;1.33;;;;;;;13.84;50.48;100581.00;4974822;28;20121;-71
2021/05/23 08:06:28;;;;;;;6.80;1.35;;;;;;;13.87;52.39;100595.91;4991648;28;20867;-71
2021/05/23 08:08:53;;;;;;;5.33;1.30;;;;;;;13.58;52.75;100591.38;4958664;28;20084;-71
2021/05/23 08:11:18;;;;;;;9.43;2.13;;;;;;;14.06;51.45;100591.78;4991840;28;20363;-70
2021/05/23 08:13:44;;;;;;;11.87;1.33;;;;;;;14.10;51.56;100601.97;4991867;28;20030;-71
2021/05/23 08:16:10;;;;;;;11.70;1.60;;;;;;;13.23;51.14;100601.81;4991406;28;20069;-71
2021/05/23 08:18:38;;;;;;;9.07;1.48;;;;;;;13.62;49.73;100606.09;4991681;28;20096;-71
2021/05/23 08:21:04;;;;;;;9.25;1.90;;;;;;;14.95;50.23;100604.88;4957201;28;20056;-71
2021/05/23 08:23:31;;;;;;;8.05;1.63;;;;;;;14.15;48.57;100598.72;4990160;28;20563;-71
2021/05/23 08:25:57;;;;;;;9.05;1.60;;;;;;;13.65;50.07;100608.41;4972696;28;20049;-71
2021/05/23 08:28:23;;;;;;;7.82;1.70;;;;;;;13.48;51.60;100631.91;4956688;28;20030;-71
2021/05/23 08:30:49;;;;;;;7.72;2.55;;;;;;;13.38;53.27;100623.31;4989220;28;20038;-71
2021/05/23 08:33:14;;;;;;;5.37;1.40;;;;;;;13.43;52.53;100634.31;4988976;28;20065;-71
2021/05/23 08:35:41;;;;;;;8.68;1.50;;;;;;;12.75;52.61;100623.50;4971928;28;20069;-71
2021/05/23 08:38:07;;;;;;;4.30;1.50;;;;;;;12.93;52.49;100636.59;4972525;28;20435;-72
2021/05/23 08:40:34;;;;;;;7.05;1.27;;;;;;;12.96;53.90;100635.41;4989932;28;20058;-71
2021/05/23 08:43:01;;;;;;;10.13;1.83;;;;;;;12.50;51.08;100648.78;4989669;28;20038;-71
2021/05/23 08:45:26;;;;;;;3.28;0.90;;;;;;;13.39;51.04;100641.03;4990745;28;20041;-71
2021/05/23 08:47:52;;;;;;;10.73;2.30;;;;;;;14.47;48.53;100631.47;4991167;28;20359;-72
2021/05/23 08:50:20;;;;;;;15.03;2.37;;;;;;;14.59;48.07;100640.75;4974299;28;20479;-71
2021/05/23 08:52:57;;;;;;;4.97;1.70;;;;;;;14.01;50.44;100647.91;4991148;28;20096;-72
2021/05/23 08:55:26;;;;;;;6.63;1.40;;;;;;;13.43;49.68;100656.59;4974272;28;20038;-72
2021/05/23 08:57:54;;;;;;;7.82;1.17;;;;;;;13.58;50.20;100655.75;4990976;28;20047;-72
2021/05/23 09:00:21;;;;;;;4.63;1.10;;;;;;;12.89;51.64;100646.00;4974202;28;20038;-72
2021/05/23 09:02:58;;;;;;;4.75;1.25;;;;;;;12.77;53.16;100661.66;4974371;28;20038;-72
2021/05/23 09:05:32;;;;;;;4.10;1.13;;;;;;;13.27;52.94;100665.66;4977908;28;20042;-71
2021/05/23 09:07:59;;;;;;;22.17;2.53;;;;;;;13.89;52.50;100667.16;4977647;28;20034;-72
2021/05/23 09:10:27;;;;;;;9.77;1.88;;;;;;;13.95;52.00;100670.94;4977894;28;20065;-72
2021/05/23 09:12:53;;;;;;;8.82;2.13;;;;;;;14.87;50.40;100664.16;4994901;28;20193;-72
2021/05/23 09:15:19;;;;;;;5.35;1.58;;;;;;;14.97;47.99;100664.66;4961718;28;20164;-72
2021/05/23 09:17:45;;;;;;;3.70;1.70;;;;;;;14.71;48.32;100665.25;4977186;28;20045;-72
2021/05/23 09:20:17;;;;;;;4.38;1.48;;;;;;;15.41;47.14;100668.94;4977613;28;20598;-72
2021/05/23 09:22:42;;;;;;;9.90;1.85;;;;;;;16.34;46.66;100674.00;4961484;28;20137;-72
2021/05/23 09:25:09;;;;;;;4.67;1.07;;;;;;;15.16;44.38;100679.28;4977731;28;20137;-72
2021/05/23 09:27:43;;;;;;;10.55;1.27;;;;;;;14.92;45.40;100675.16;4994130;28;20210;-72
2021/05/23 09:30:20;;;;;;;3.55;1.20;;;;;;;14.25;46.66;100679.78;4977630;28;20117;-72
2021/05/23 09:32:46;;;;;;;10.05;1.20;;;;;;;14.24;48.81;100683.50;4994249;28;20500;-72
2021/05/23 09:35:12;;;;;;;;;;;;;;;15.12;45.22;100686.06;4977205;28;20479;-72
2021/05/23 09:37:39;;;;;;;10.80;1.23;;;;;;;14.19;50.24;100696.66;4960972;28;19924;-72
2021/05/23 09:40:22;;;;;;;9.95;2.47;;;;;;;14.55;47.46;100679.75;4994482;28;20097;-71
2021/05/23 09:42:50;;;;;;;4.20;1.40;;;;;;;14.89;47.72;100694.34;4993708;28;20510;-72
2021/05/23 09:45:17;;;;;;;13.90;1.83;;;;;;;15.77;46.84;100684.94;4994496;28;20041;-72
2021/05/23 09:47:53;;;;;;;8.93;1.15;;;;;;;16.61;44.52;100704.56;4960052;28;20577;-72
2021/05/23 09:50:40;;;;;;;4.90;1.33;;;;;;;16.43;45.23;100705.94;4977188;28;20042;-72
2021/05/23 09:53:22;;;;;;;2.35;0.98;;;;;;;16.53;41.87;100710.97;4994305;28;20034;-72
2021/05/23 09:55:52;;;;;;;8.23;1.50;;;;;;;16.72;45.04;100705.84;4993995;28;20608;-72
2021/05/23 09:58:29;;;;;;;7.22;2.15;;;;;;;17.92;42.61;100714.81;4976782;28;20030;-72
2021/05/23 10:00:55;;;;;;;5.57;1.25;;;;;;;17.07;42.44;100720.03;4993847;28;20040;-73
2021/05/23 10:03:26;;;;;;;4.55;2.05;;;;;;;17.07;41.49;100717.34;4960618;28;20030;-72
2021/05/23 10:05:53;;;;;;;7.35;1.40;;;;;;;16.31;45.04;100723.72;4960537;28;20383;-72
2021/05/23 10:08:18;;;;;;;5.68;1.13;;;;;;;15.85;44.46;100724.34;4993888;28;20065;-72
2021/05/23 10:10:45;;;;;;;4.17;1.43;;;;;;;15.00;45.60;100731.47;4976833;28;20073;-72
2021/05/23 10:13:10;;;;;;;9.52;2.25;;;;;;;14.63;47.55;100719.91;4993812;28;20038;-72
2021/05/23 10:15:40;;;;;;;8.30;1.40;;;;;;;13.32;47.76;100742.00;4992403;28;20100;-72
2021/05/23 10:18:07;;;;;;;7.70;1.00;;;;;;;13.55;49.48;100742.81;4976359;28;20296;-72
2021/05/23 10:20:33;;;;;;;7.22;0.90;;;;;;;12.95;48.73;100741.75;4993684;28;20077;-71
2021/05/23 10:23:03;;;;;;;4.07;0.77;;;;;;;12.86;51.88;100746.34;4993616;28;20452;-72
2021/05/23 10:25:30;;;;;;;7.13;1.58;;;;;;;14.76;47.44;100740.75;4993712;28;20030;-72
2021/05/23 10:27:59;;;;;;;5.30;1.63;;;;;;;16.39;46.44;100741.59;4993184;28;20038;-72
2021/05/23 10:30:24;;;;;;;6.45;1.65;;;;;;;16.45;46.00;100740.78;4976344;28;20045;-72
2021/05/23 10:32:50;;;;;;;6.87;1.00;;;;;;;16.29;46.05;100733.88;4976151;28;20034;-72
2021/05/23 10:35:25;;;;;;;6.27;1.23;;;;;;;15.80;47.24;100742.91;4976392;28;20045;-72
2021/05/23 10:37:53;;;;;;;3.40;1.02;;;;;;;16.22;44.49;100733.00;4976010;28;20108;-72
2021/05/23 10:40:22;;;;;;;5.85;1.00;;;;;;;15.88;42.80;100744.66;4993263;28;20121;-72
2021/05/23 10:42:51;;;;;;;5.32;0.90;;;;;;;15.79;45.61;100752.03;4959960;28;20065;-72
2021/05/23 10:45:41;;;;;;;4.50;1.17;;;;;;;15.38;46.34;100753.56;4976133;28;20070;-71
2021/05/23 10:48:18;;;;;;;5.20;1.17;;;;;;;16.39;43.39;100758.59;4975867;28;20487;-72
2021/05/23 10:50:47;;;;;;;4.68;1.35;;;;;;;17.16;41.92;100758.41;4993099;28;20043;-71
2021/05/23 10:53:12;;;;;;;2.90;1.35;;;;;;;16.20;45.46;100748.53;4975889;28;20038;-71
2021/05/23 10:55:49;;;;;;;6.70;1.30;;;;;;;16.01;41.02;100745.56;4992918;28;20045;-71
2021/05/23 10:58:22;;;;;;;4.25;1.23;;;;;;;16.51;43.05;100766.13;4975733;28;20101;-72
2021/05/23 11:00:56;;;;;;;4.18;1.15;;;;;;;16.39;40.83;100769.38;4959580;28;20034;-72
2021/05/23 11:03:24;;;;;;;2.45;0.75;;;;;;;16.85;41.72;100768.72;4992945;28;20038;-72
2021/05/23 11:06:00;;;;;;;4.95;0.95;;;;;;;16.29;39.43;100768.91;4992444;28;20030;-72
2021/05/23 11:08:32;;;;;;;;;;;;;;;16.37;41.49;100766.03;4976248;28;20053;-72
2021/05/23 11:10:58;;;;;;;8.93;0.85;;;;;;;16.46;43.29;100789.09;4975533;28;19936;-72
2021/05/23 11:13:26;;;;;;;3.72;0.80;;;;;;;17.52;40.74;100780.47;4992789;28;20038;-72
2021/05/23 11:15:53;;;;;;;2.45;0.90;;;;;;;17.29;39.55;100788.94;4975520;28;20111;-76
2021/05/23 11:18:25;;;;;;;6.10;1.10;;;;;;;17.40;38.91;100792.09;4975498;28;20042;-76
2021/05/23 11:20:57;;;;;;;5.90;1.23;;;;;;;17.86;39.87;100783.16;4992729;28;20048;-77
2021/05/23 11:23:22;;;;;;;3.05;0.90;;;;;;;17.69;39.71;100797.06;4992646;28;20410;-77
2021/05/23 11:25:48;;;;;;;5.27;0.80;;;;;;;17.08;41.01;100794.53;4975068;28;20034;-78